sensor_id;sensor_type;location;lat;lon;timestamp;temperature;humidity
11497;DHT22;5805;51.542;7.230;2023-04-16T00:02:24;11.10;99.90
11497;DHT22;5805;51.542;7.230;2023-04-16T00:04:50;11.10;99.90
11497;DHT22;5805;51.542;7.230;2023-04-16T00:07:16;11.20;99.90
11497;DHT22;5805;51.542;7.230;2023-04-16T00:09:43;11.10;99.90
11497;DHT22;5805;51.542;7.230;2023-04-16T00:12:08;11.10;99.90
11497;DHT22;5805;51.542;7.230;2023-04-16T00:14:34;11.10;99.90
11497;DHT22;5805;51.542;7.230;2023-04-16T00:17:00;11.10;99.90
11497;DHT22;5805;51.542;7.230;2023-04-16T00:19:25;11.10;99.90
11497;DHT22;5805;51.542;7.230;2023-04-16T00:21:51;11.10;99.90
11497;DHT22;5805;51.542;7.230;2023-04-16T00:24:17;11.10;99.90
11497;DHT22;5805;51.542;7.230;2023-04-16T00:26:44;11.10;99.90
11497;DHT22;5805;51.542;7.230;2023-04-16T00:29:09;11.00;99.90
11497;DHT22;5805;51.542;7.230;2023-04-16T00:31:35;11.40;99.90
11497;DHT22;5805;51.542;7.230;2023-04-16T00:34:01;11.10;99.90
11497;DHT22;5805;51.542;7.230;2023-04-16T00:36:27;11.10;99.90
11497;DHT22;5805;51.542;7.230;2023-04-16T00:38:53;11.00;99.90
11497;DHT22;5805;51.542;7.230;2023-04-16T00:41:20;11.00;99.90
11497;DHT22;5805;51.542;7.230;2023-04-16T00:43:47;11.10;99.90
11497;DHT22;5805;51.542;7.230;2023-04-16T00:46:13;11.10;99.90
11497;DHT22;5805;51.542;7.230;2023-04-16T00:48:40;11.10;99.90
11497;DHT22;5805;51.542;7.230;2023-04-16T00:51:08;11.10;99.90
11497;DHT22;5805;51.542;7.230;2023-04-16T00:53:34;11.10;99.90
11497;DHT22;5805;51.542;7.230;2023-04-16T00:56:01;11.00;99.90
11497;DHT22;5805;51.542;7.230;2023-04-16T00:58:27;11.00;99.90
11497;DHT22;5805;51.542;7.230;2023-04-16T01:00:55;11.00;99.90
11497;DHT22;5805;51.542;7.230;2023-04-16T01:03:21;11.00;99.90
11497;DHT22;5805;51.542;7.230;2023-04-16T01:05:47;11.00;99.90
11497;DHT22;5805;51.542;7.230;2023-04-16T01:08:15;11.10;99.90
11497;DHT22;5805;51.542;7.230;2023-04-16T01:10:41;11.10;99.90
11497;DHT22;5805;51.542;7.230;2023-04-16T01:13:07;11.00;99.90
11497;DHT22;5805;51.542;7.230;2023-04-16T01:15:33;11.00;99.90
11497;DHT22;5805;51.542;7.230;2023-04-16T01:18:00;11.10;99.90
11497;DHT22;5805;51.542;7.230;2023-04-16T01:20:26;11.10;99.90
11497;DHT22;5805;51.542;7.230;2023-04-16T01:22:53;11.00;99.90
11497;DHT22;5805;51.542;7.230;2023-04-16T01:25:18;11.10;99.90
11497;DHT22;5805;51.542;7.230;2023-04-16T01:27:44;11.00;99.90
11497;DHT22;5805;51.542;7.230;2023-04-16T01:30:13;11.70;99.90
11497;DHT22;5805;51.542;7.230;2023-04-16T01:32:39;11.00;99.90
11497;DHT22;5805;51.542;7.230;2023-04-16T01:35:05;11.00;99.90
11497;DHT22;5805;51.542;7.230;2023-04-16T01:37:30;11.00;99.90
11497;DHT22;5805;51.542;7.230;2023-04-16T01:39:57;11.00;99.90
11497;DHT22;5805;51.542;7.230;2023-04-16T01:42:23;11.00;99.90
11497;DHT22;5805;51.542;7.230;2023-04-16T01:44:49;11.00;99.90
11497;DHT22;5805;51.542;7.230;2023-04-16T01:47:14;11.00;99.90
11497;DHT22;5805;51.542;7.230;2023-04-16T01:49:40;11.60;99.90
11497;DHT22;5805;51.542;7.230;2023-04-16T01:52:06;11.00;99.90
11497;DHT22;5805;51.542;7.230;2023-04-16T01:54:31;11.10;99.90
11497;DHT22;5805;51.542;7.230;2023-04-16T01:56:58;11.00;99.90
11497;DHT22;5805;51.542;7.230;2023-04-16T01:59:24;11.00;99.90
11497;DHT22;5805;51.542;7.230;2023-04-16T02:01:50;11.20;99.90
11497;DHT22;5805;51.542;7.230;2023-04-16T02:04:15;11.00;99.90
11497;DHT22;5805;51.542;7.230;2023-04-16T02:06:41;11.90;99.90
11497;DHT22;5805;51.542;7.230;2023-04-16T02:09:07;11.20;99.90
11497;DHT22;5805;51.542;7.230;2023-04-16T02:11:32;11.20;99.90
11497;DHT22;5805;51.542;7.230;2023-04-16T02:14:00;11.20;99.90
11497;DHT22;5805;51.542;7.230;2023-04-16T02:16:25;11.20;99.90
11497;DHT22;5805;51.542;7.230;2023-04-16T02:18:51;11.20;99.90
11497;DHT22;5805;51.542;7.230;2023-04-16T02:21:17;11.10;99.90
11497;DHT22;5805;51.542;7.230;2023-04-16T02:23:42;11.10;99.90
11497;DHT22;5805;51.542;7.230;2023-04-16T02:26:08;11.10;99.90
11497;DHT22;5805;51.542;7.230;2023-04-16T02:28:34;11.10;99.90
11497;DHT22;5805;51.542;7.230;2023-04-16T02:31:01;11.00;99.90
11497;DHT22;5805;51.542;7.230;2023-04-16T02:33:26;11.00;99.90
11497;DHT22;5805;51.542;7.230;2023-04-16T02:35:52;11.10;99.90
11497;DHT22;5805;51.542;7.230;2023-04-16T02:38:18;11.20;99.90
11497;DHT22;5805;51.542;7.230;2023-04-16T02:40:43;11.40;99.90
11497;DHT22;5805;51.542;7.230;2023-04-16T02:43:09;11.00;99.90
11497;DHT22;5805;51.542;7.230;2023-04-16T02:45:35;11.10;99.90
11497;DHT22;5805;51.542;7.230;2023-04-16T02:48:02;11.10;99.90
11497;DHT22;5805;51.542;7.230;2023-04-16T02:50:27;11.10;99.90
11497;DHT22;5805;51.542;7.230;2023-04-16T02:52:53;11.10;99.90
11497;DHT22;5805;51.542;7.230;2023-04-16T02:55:19;11.20;99.90
11497;DHT22;5805;51.542;7.230;2023-04-16T02:57:44;11.20;99.90
11497;DHT22;5805;51.542;7.230;2023-04-16T03:00:11;11.20;99.90
11497;DHT22;5805;51.542;7.230;2023-04-16T03:02:36;11.20;99.90
11497;DHT22;5805;51.542;7.230;2023-04-16T03:05:04;11.60;99.90
11497;DHT22;5805;51.542;7.230;2023-04-16T03:07:30;11.20;99.90
11497;DHT22;5805;51.542;7.230;2023-04-16T03:09:56;11.20;99.90
11497;DHT22;5805;51.542;7.230;2023-04-16T03:12:21;11.20;99.90
11497;DHT22;5805;51.542;7.230;2023-04-16T03:14:49;11.10;99.90
11497;DHT22;5805;51.542;7.230;2023-04-16T03:17:15;11.00;99.90
11497;DHT22;5805;51.542;7.230;2023-04-16T03:19:40;11.00;99.90
11497;DHT22;5805;51.542;7.230;2023-04-16T03:22:07;12.00;99.90
11497;DHT22;5805;51.542;7.230;2023-04-16T03:24:33;11.10;99.90
11497;DHT22;5805;51.542;7.230;2023-04-16T03:26:59;11.40;99.90
11497;DHT22;5805;51.542;7.230;2023-04-16T03:29:24;11.00;99.90
11497;DHT22;5805;51.542;7.230;2023-04-16T03:31:50;11.10;99.90
11497;DHT22;5805;51.542;7.230;2023-04-16T03:34:16;11.10;99.90
11497;DHT22;5805;51.542;7.230;2023-04-16T03:36:41;11.20;99.90
11497;DHT22;5805;51.542;7.230;2023-04-16T03:39:08;11.20;99.90
11497;DHT22;5805;51.542;7.230;2023-04-16T03:41:34;11.20;99.90
11497;DHT22;5805;51.542;7.230;2023-04-16T03:44:00;11.30;99.90
11497;DHT22;5805;51.542;7.230;2023-04-16T03:46:25;11.20;99.90
11497;DHT22;5805;51.542;7.230;2023-04-16T03:48:51;11.30;99.90
11497;DHT22;5805;51.542;7.230;2023-04-16T03:51:17;11.30;99.90
11497;DHT22;5805;51.542;7.230;2023-04-16T03:53:42;11.30;99.90
11497;DHT22;5805;51.542;7.230;2023-04-16T03:56:10;11.70;99.90
11497;DHT22;5805;51.542;7.230;2023-04-16T03:58:35;11.30;99.90
11497;DHT22;5805;51.542;7.230;2023-04-16T04:01:01;11.30;99.90
11497;DHT22;5805;51.542;7.230;2023-04-16T04:03:27;11.30;99.90
11497;DHT22;5805;51.542;7.230;2023-04-16T04:05:52;11.30;99.90
11497;DHT22;5805;51.542;7.230;2023-04-16T04:08:19;11.40;99.90
11497;DHT22;5805;51.542;7.230;2023-04-16T04:10:44;11.30;99.90
11497;DHT22;5805;51.542;7.230;2023-04-16T04:13:11;11.30;99.90
11497;DHT22;5805;51.542;7.230;2023-04-16T04:15:37;11.30;99.90
11497;DHT22;5805;51.542;7.230;2023-04-16T04:18:03;11.30;99.90
11497;DHT22;5805;51.542;7.230;2023-04-16T04:20:28;11.30;99.90
11497;DHT22;5805;51.542;7.230;2023-04-16T04:22:54;11.40;99.90
11497;DHT22;5805;51.542;7.230;2023-04-16T04:25:20;11.30;99.90
11497;DHT22;5805;51.542;7.230;2023-04-16T04:27:46;11.40;99.90
11497;DHT22;5805;51.542;7.230;2023-04-16T04:30:13;11.30;99.90
11497;DHT22;5805;51.542;7.230;2023-04-16T04:32:38;11.30;99.90
11497;DHT22;5805;51.542;7.230;2023-04-16T04:35:05;11.30;99.90
11497;DHT22;5805;51.542;7.230;2023-04-16T04:37:30;11.30;99.90
11497;DHT22;5805;51.542;7.230;2023-04-16T04:39:56;11.40;99.90
11497;DHT22;5805;51.542;7.230;2023-04-16T04:42:23;11.30;99.90
11497;DHT22;5805;51.542;7.230;2023-04-16T04:44:48;11.40;99.90
11497;DHT22;5805;51.542;7.230;2023-04-16T04:47:15;11.40;99.90
11497;DHT22;5805;51.542;7.230;2023-04-16T04:49:41;11.40;99.90
11497;DHT22;5805;51.542;7.230;2023-04-16T04:52:07;12.20;99.90
11497;DHT22;5805;51.542;7.230;2023-04-16T04:54:33;11.30;99.90
11497;DHT22;5805;51.542;7.230;2023-04-16T04:56:58;11.40;99.90
11497;DHT22;5805;51.542;7.230;2023-04-16T04:59:24;11.40;99.90
11497;DHT22;5805;51.542;7.230;2023-04-16T05:01:50;11.40;99.90
11497;DHT22;5805;51.542;7.230;2023-04-16T05:04:17;11.40;99.90
11497;DHT22;5805;51.542;7.230;2023-04-16T05:06:43;11.40;99.90
11497;DHT22;5805;51.542;7.230;2023-04-16T05:09:09;11.40;99.90
11497;DHT22;5805;51.542;7.230;2023-04-16T05:11:35;11.40;99.90
11497;DHT22;5805;51.542;7.230;2023-04-16T05:14:01;11.50;99.90
11497;DHT22;5805;51.542;7.230;2023-04-16T05:16:26;11.40;99.90
11497;DHT22;5805;51.542;7.230;2023-04-16T05:18:52;11.70;99.90
11497;DHT22;5805;51.542;7.230;2023-04-16T05:21:19;11.60;99.90
11497;DHT22;5805;51.542;7.230;2023-04-16T05:23:45;11.60;99.90
11497;DHT22;5805;51.542;7.230;2023-04-16T05:26:10;11.50;99.90
11497;DHT22;5805;51.542;7.230;2023-04-16T05:28:36;11.50;99.90
11497;DHT22;5805;51.542;7.230;2023-04-16T05:31:01;11.80;99.90
11497;DHT22;5805;51.542;7.230;2023-04-16T05:33:27;11.50;99.90
11497;DHT22;5805;51.542;7.230;2023-04-16T05:35:53;11.50;99.90
11497;DHT22;5805;51.542;7.230;2023-04-16T05:38:20;11.50;99.90
11497;DHT22;5805;51.542;7.230;2023-04-16T05:40:45;11.40;99.90
11497;DHT22;5805;51.542;7.230;2023-04-16T05:43:11;11.50;99.90
11497;DHT22;5805;51.542;7.230;2023-04-16T05:45:37;11.50;99.90
11497;DHT22;5805;51.542;7.230;2023-04-16T05:48:02;11.50;99.90
11497;DHT22;5805;51.542;7.230;2023-04-16T05:50:28;11.50;99.90
11497;DHT22;5805;51.542;7.230;2023-04-16T05:52:54;11.50;99.90
11497;DHT22;5805;51.542;7.230;2023-04-16T05:55:21;11.50;99.90
11497;DHT22;5805;51.542;7.230;2023-04-16T05:57:47;11.50;99.90
11497;DHT22;5805;51.542;7.230;2023-04-16T06:00:12;11.60;99.90
11497;DHT22;5805;51.542;7.230;2023-04-16T06:02:38;11.60;99.90
11497;DHT22;5805;51.542;7.230;2023-04-16T06:05:04;11.50;99.90
11497;DHT22;5805;51.542;7.230;2023-04-16T06:07:30;11.50;99.90
11497;DHT22;5805;51.542;7.230;2023-04-16T06:09:56;11.60;99.90
11497;DHT22;5805;51.542;7.230;2023-04-16T06:12:23;11.60;99.90
11497;DHT22;5805;51.542;7.230;2023-04-16T06:14:48;11.70;99.90
11497;DHT22;5805;51.542;7.230;2023-04-16T06:17:14;11.80;99.90
11497;DHT22;5805;51.542;7.230;2023-04-16T06:19:40;11.80;99.90
11497;DHT22;5805;51.542;7.230;2023-04-16T06:22:06;11.90;99.90
11497;DHT22;5805;51.542;7.230;2023-04-16T06:24:32;11.90;99.90
11497;DHT22;5805;51.542;7.230;2023-04-16T06:26:57;12.30;99.90
11497;DHT22;5805;51.542;7.230;2023-04-16T06:29:24;12.00;99.90
11497;DHT22;5805;51.542;7.230;2023-04-16T06:31:50;12.00;99.90
11497;DHT22;5805;51.542;7.230;2023-04-16T06:34:16;12.10;99.90
11497;DHT22;5805;51.542;7.230;2023-04-16T06:36:42;12.20;99.90
11497;DHT22;5805;51.542;7.230;2023-04-16T06:39:07;12.20;99.90
11497;DHT22;5805;51.542;7.230;2023-04-16T06:41:33;12.30;99.90
11497;DHT22;5805;51.542;7.230;2023-04-16T06:43:59;12.30;99.90
11497;DHT22;5805;51.542;7.230;2023-04-16T06:46:26;12.40;99.90
11497;DHT22;5805;51.542;7.230;2023-04-16T06:48:51;12.40;99.90
11497;DHT22;5805;51.542;7.230;2023-04-16T06:51:17;12.50;99.90
11497;DHT22;5805;51.542;7.230;2023-04-16T06:53:43;12.50;99.90
11497;DHT22;5805;51.542;7.230;2023-04-16T06:56:09;12.50;99.90
11497;DHT22;5805;51.542;7.230;2023-04-16T06:58:34;12.50;99.90
11497;DHT22;5805;51.542;7.230;2023-04-16T07:01:00;12.50;99.90
11497;DHT22;5805;51.542;7.230;2023-04-16T07:03:27;12.60;99.90
11497;DHT22;5805;51.542;7.230;2023-04-16T07:05:53;12.60;99.90
11497;DHT22;5805;51.542;7.230;2023-04-16T07:08:18;12.50;99.90
11497;DHT22;5805;51.542;7.230;2023-04-16T07:10:44;12.50;99.90
11497;DHT22;5805;51.542;7.230;2023-04-16T07:13:10;12.50;99.90
11497;DHT22;5805;51.542;7.230;2023-04-16T07:15:35;12.50;99.90
11497;DHT22;5805;51.542;7.230;2023-04-16T07:18:01;12.60;99.90
11497;DHT22;5805;51.542;7.230;2023-04-16T07:20:28;12.70;99.90
11497;DHT22;5805;51.542;7.230;2023-04-16T07:22:54;12.60;99.90
11497;DHT22;5805;51.542;7.230;2023-04-16T07:25:20;12.60;99.90
11497;DHT22;5805;51.542;7.230;2023-04-16T07:27:45;12.60;99.90
11497;DHT22;5805;51.542;7.230;2023-04-16T07:30:11;12.60;99.90
11497;DHT22;5805;51.542;7.230;2023-04-16T07:32:37;12.60;99.90
11497;DHT22;5805;51.542;7.230;2023-04-16T07:35:03;12.70;99.90
11497;DHT22;5805;51.542;7.230;2023-04-16T07:37:30;12.70;99.90
11497;DHT22;5805;51.542;7.230;2023-04-16T07:39:55;12.70;99.90
11497;DHT22;5805;51.542;7.230;2023-04-16T07:42:21;12.80;99.90
11497;DHT22;5805;51.542;7.230;2023-04-16T07:44:47;12.90;99.90
11497;DHT22;5805;51.542;7.230;2023-04-16T07:47:13;13.00;99.90
11497;DHT22;5805;51.542;7.230;2023-04-16T07:49:38;13.00;99.90
11497;DHT22;5805;51.542;7.230;2023-04-16T07:52:05;13.00;99.90
11497;DHT22;5805;51.542;7.230;2023-04-16T07:54:32;13.00;99.90
11497;DHT22;5805;51.542;7.230;2023-04-16T07:56:58;13.00;99.90
11497;DHT22;5805;51.542;7.230;2023-04-16T07:59:23;13.10;99.90
11497;DHT22;5805;51.542;7.230;2023-04-16T08:01:50;13.00;99.90
11497;DHT22;5805;51.542;7.230;2023-04-16T08:04:16;13.20;99.90
11497;DHT22;5805;51.542;7.230;2023-04-16T08:06:42;13.20;99.90
11497;DHT22;5805;51.542;7.230;2023-04-16T08:09:08;13.30;99.90
11497;DHT22;5805;51.542;7.230;2023-04-16T08:11:35;13.80;99.90
11497;DHT22;5805;51.542;7.230;2023-04-16T08:14:00;13.40;99.90
11497;DHT22;5805;51.542;7.230;2023-04-16T08:16:26;13.30;99.90
11497;DHT22;5805;51.542;7.230;2023-04-16T08:18:52;13.50;99.90
11497;DHT22;5805;51.542;7.230;2023-04-16T08:21:17;13.60;99.90
11497;DHT22;5805;51.542;7.230;2023-04-16T08:23:43;13.70;99.90
11497;DHT22;5805;51.542;7.230;2023-04-16T08:26:09;13.60;99.90
11497;DHT22;5805;51.542;7.230;2023-04-16T08:28:36;13.50;99.90
11497;DHT22;5805;51.542;7.230;2023-04-16T08:31:01;13.50;99.90
11497;DHT22;5805;51.542;7.230;2023-04-16T08:33:27;13.50;99.90
11497;DHT22;5805;51.542;7.230;2023-04-16T08:35:53;13.50;99.90
11497;DHT22;5805;51.542;7.230;2023-04-16T08:38:18;13.60;99.90
11497;DHT22;5805;51.542;7.230;2023-04-16T08:40:44;13.70;99.90
11497;DHT22;5805;51.542;7.230;2023-04-16T08:43:12;13.70;99.90
11497;DHT22;5805;51.542;7.230;2023-04-16T08:45:40;13.90;99.90
11497;DHT22;5805;51.542;7.230;2023-04-16T08:48:06;14.00;99.90
11497;DHT22;5805;51.542;7.230;2023-04-16T08:50:32;14.10;99.90
11497;DHT22;5805;51.542;7.230;2023-04-16T08:52:59;14.20;99.90
11497;DHT22;5805;51.542;7.230;2023-04-16T08:55:34;14.00;99.90
11497;DHT22;5805;51.542;7.230;2023-04-16T08:58:00;13.90;99.90
11497;DHT22;5805;51.542;7.230;2023-04-16T09:00:28;13.70;99.90
11497;DHT22;5805;51.542;7.230;2023-04-16T09:02:57;13.70;99.90
11497;DHT22;5805;51.542;7.230;2023-04-16T09:05:23;13.70;99.90
11497;DHT22;5805;51.542;7.230;2023-04-16T09:07:49;14.10;99.90
11497;DHT22;5805;51.542;7.230;2023-04-16T09:10:16;13.90;99.90
11497;DHT22;5805;51.542;7.230;2023-04-16T09:12:42;14.00;99.90
11497;DHT22;5805;51.542;7.230;2023-04-16T09:15:09;13.80;99.90
11497;DHT22;5805;51.542;7.230;2023-04-16T09:17:36;13.70;99.90
11497;DHT22;5805;51.542;7.230;2023-04-16T09:20:03;13.60;99.90
11497;DHT22;5805;51.542;7.230;2023-04-16T09:22:29;13.80;99.90
11497;DHT22;5805;51.542;7.230;2023-04-16T09:24:55;13.70;99.90
11497;DHT22;5805;51.542;7.230;2023-04-16T09:27:21;13.70;99.90
11497;DHT22;5805;51.542;7.230;2023-04-16T09:29:49;13.80;99.90
11497;DHT22;5805;51.542;7.230;2023-04-16T09:32:14;13.80;99.90
11497;DHT22;5805;51.542;7.230;2023-04-16T09:34:53;13.70;99.90
11497;DHT22;5805;51.542;7.230;2023-04-16T09:37:20;13.80;99.90
11497;DHT22;5805;51.542;7.230;2023-04-16T09:39:52;14.00;99.90
11497;DHT22;5805;51.542;7.230;2023-04-16T09:42:20;14.00;99.90
11497;DHT22;5805;51.542;7.230;2023-04-16T09:44:48;14.00;99.90
11497;DHT22;5805;51.542;7.230;2023-04-16T09:47:14;14.20;99.90
11497;DHT22;5805;51.542;7.230;2023-04-16T09:49:41;14.10;99.90
11497;DHT22;5805;51.542;7.230;2023-04-16T09:52:11;14.20;99.90
11497;DHT22;5805;51.542;7.230;2023-04-16T09:54:38;14.20;99.90
11497;DHT22;5805;51.542;7.230;2023-04-16T09:57:09;14.40;99.90
11497;DHT22;5805;51.542;7.230;2023-04-16T09:59:35;14.40;99.90
11497;DHT22;5805;51.542;7.230;2023-04-16T10:02:01;14.40;99.90
11497;DHT22;5805;51.542;7.230;2023-04-16T10:04:26;14.50;99.90
11497;DHT22;5805;51.542;7.230;2023-04-16T10:07:02;14.50;99.90
11497;DHT22;5805;51.542;7.230;2023-04-16T10:09:31;14.70;99.90
11497;DHT22;5805;51.542;7.230;2023-04-16T10:11:58;14.80;99.90
11497;DHT22;5805;51.542;7.230;2023-04-16T10:14:24;15.10;99.90
11497;DHT22;5805;51.542;7.230;2023-04-16T10:16:50;15.30;99.90
11497;DHT22;5805;51.542;7.230;2023-04-16T10:19:16;15.60;99.90
11497;DHT22;5805;51.542;7.230;2023-04-16T10:21:42;15.80;99.90
11497;DHT22;5805;51.542;7.230;2023-04-16T10:24:08;15.90;99.90
11497;DHT22;5805;51.542;7.230;2023-04-16T10:26:34;15.90;99.90
11497;DHT22;5805;51.542;7.230;2023-04-16T10:29:03;16.00;99.90
11497;DHT22;5805;51.542;7.230;2023-04-16T10:31:30;16.20;99.90
11497;DHT22;5805;51.542;7.230;2023-04-16T10:33:57;16.40;99.90
11497;DHT22;5805;51.542;7.230;2023-04-16T10:36:23;16.70;99.90
11497;DHT22;5805;51.542;7.230;2023-04-16T10:38:50;16.60;99.90
11497;DHT22;5805;51.542;7.230;2023-04-16T10:41:19;16.50;99.90
11497;DHT22;5805;51.542;7.230;2023-04-16T10:43:46;16.40;99.90
11497;DHT22;5805;51.542;7.230;2023-04-16T10:46:21;16.20;99.90
11497;DHT22;5805;51.542;7.230;2023-04-16T10:48:47;16.10;99.90
11497;DHT22;5805;51.542;7.230;2023-04-16T10:51:27;16.20;99.90
11497;DHT22;5805;51.542;7.230;2023-04-16T10:53:53;16.30;99.90
11497;DHT22;5805;51.542;7.230;2023-04-16T10:56:22;16.80;99.90
11497;DHT22;5805;51.542;7.230;2023-04-16T10:58:48;17.20;99.90
11497;DHT22;5805;51.542;7.230;2023-04-16T11:01:14;17.40;99.90
11497;DHT22;5805;51.542;7.230;2023-04-16T11:03:42;17.40;99.90
11497;DHT22;5805;51.542;7.230;2023-04-16T11:06:10;17.60;99.90
11497;DHT22;5805;51.542;7.230;2023-04-16T11:08:37;17.60;99.90
11497;DHT22;5805;51.542;7.230;2023-04-16T11:11:04;17.40;99.90
11497;DHT22;5805;51.542;7.230;2023-04-16T11:13:30;17.10;99.90
11497;DHT22;5805;51.542;7.230;2023-04-16T11:15:57;16.90;99.90
11497;DHT22;5805;51.542;7.230;2023-04-16T11:18:23;16.50;99.90
11497;DHT22;5805;51.542;7.230;2023-04-16T11:20:50;15.80;99.90
11497;DHT22;5805;51.542;7.230;2023-04-16T11:23:16;15.60;99.90
11497;DHT22;5805;51.542;7.230;2023-04-16T11:25:41;15.70;99.90
11497;DHT22;5805;51.542;7.230;2023-04-16T11:28:07;15.90;99.90
11497;DHT22;5805;51.542;7.230;2023-04-16T11:30:34;15.90;99.90
11497;DHT22;5805;51.542;7.230;2023-04-16T11:33:01;16.00;99.90
11497;DHT22;5805;51.542;7.230;2023-04-16T11:35:27;16.10;99.90
11497;DHT22;5805;51.542;7.230;2023-04-16T11:37:56;16.10;99.90
11497;DHT22;5805;51.542;7.230;2023-04-16T11:40:22;15.90;99.90
11497;DHT22;5805;51.542;7.230;2023-04-16T11:42:47;15.80;99.90
11497;DHT22;5805;51.542;7.230;2023-04-16T11:45:13;15.60;99.90
11497;DHT22;5805;51.542;7.230;2023-04-16T11:47:43;15.50;99.90
11497;DHT22;5805;51.542;7.230;2023-04-16T11:50:17;15.30;99.90
11497;DHT22;5805;51.542;7.230;2023-04-16T11:52:43;15.20;99.90
11497;DHT22;5805;51.542;7.230;2023-04-16T11:55:10;15.30;99.90
11497;DHT22;5805;51.542;7.230;2023-04-16T11:57:36;15.20;99.90
11497;DHT22;5805;51.542;7.230;2023-04-16T12:00:02;15.40;99.90
11497;DHT22;5805;51.542;7.230;2023-04-16T12:02:34;15.60;99.90
11497;DHT22;5805;51.542;7.230;2023-04-16T12:05:01;15.80;99.90
11497;DHT22;5805;51.542;7.230;2023-04-16T12:07:27;16.00;99.90
11497;DHT22;5805;51.542;7.230;2023-04-16T12:10:04;16.10;99.90
11497;DHT22;5805;51.542;7.230;2023-04-16T12:12:32;16.10;99.90
11497;DHT22;5805;51.542;7.230;2023-04-16T12:14:58;16.10;99.90
11497;DHT22;5805;51.542;7.230;2023-04-16T12:17:23;15.90;99.90
11497;DHT22;5805;51.542;7.230;2023-04-16T12:19:50;15.90;99.90
11497;DHT22;5805;51.542;7.230;2023-04-16T12:22:16;15.70;99.90
11497;DHT22;5805;51.542;7.230;2023-04-16T12:24:42;15.60;99.90
11497;DHT22;5805;51.542;7.230;2023-04-16T12:27:08;15.40;99.90
11497;DHT22;5805;51.542;7.230;2023-04-16T12:29:35;15.40;99.90
11497;DHT22;5805;51.542;7.230;2023-04-16T12:32:00;15.40;99.90
11497;DHT22;5805;51.542;7.230;2023-04-16T12:34:26;15.70;99.90
11497;DHT22;5805;51.542;7.230;2023-04-16T12:37:05;16.10;99.90
11497;DHT22;5805;51.542;7.230;2023-04-16T12:39:31;16.20;99.90
11497;DHT22;5805;51.542;7.230;2023-04-16T12:41:56;16.20;99.90
11497;DHT22;5805;51.542;7.230;2023-04-16T12:44:22;16.30;99.90
11497;DHT22;5805;51.542;7.230;2023-04-16T12:46:49;16.40;99.90
11497;DHT22;5805;51.542;7.230;2023-04-16T12:49:15;16.40;99.90
11497;DHT22;5805;51.542;7.230;2023-04-16T12:51:40;16.50;99.90
11497;DHT22;5805;51.542;7.230;2023-04-16T12:54:06;16.40;99.90
11497;DHT22;5805;51.542;7.230;2023-04-16T12:56:32;16.40;99.90
11497;DHT22;5805;51.542;7.230;2023-04-16T12:58:58;16.30;99.90
11497;DHT22;5805;51.542;7.230;2023-04-16T13:01:24;16.30;99.90
11497;DHT22;5805;51.542;7.230;2023-04-16T13:03:51;16.00;99.90
11497;DHT22;5805;51.542;7.230;2023-04-16T13:06:19;15.90;99.90
11497;DHT22;5805;51.542;7.230;2023-04-16T13:08:45;16.00;99.90
11497;DHT22;5805;51.542;7.230;2023-04-16T13:11:11;16.20;99.90
11497;DHT22;5805;51.542;7.230;2023-04-16T13:13:37;16.50;99.90
11497;DHT22;5805;51.542;7.230;2023-04-16T13:16:03;16.70;99.90
11497;DHT22;5805;51.542;7.230;2023-04-16T13:18:28;16.70;99.90
11497;DHT22;5805;51.542;7.230;2023-04-16T13:20:56;16.50;99.90
11497;DHT22;5805;51.542;7.230;2023-04-16T13:23:21;16.40;99.90
11497;DHT22;5805;51.542;7.230;2023-04-16T13:25:47;16.30;99.90
11497;DHT22;5805;51.542;7.230;2023-04-16T13:28:13;16.30;99.90
11497;DHT22;5805;51.542;7.230;2023-04-16T13:30:38;16.50;99.90
11497;DHT22;5805;51.542;7.230;2023-04-16T13:33:04;16.70;99.90
11497;DHT22;5805;51.542;7.230;2023-04-16T13:35:30;17.00;99.90
11497;DHT22;5805;51.542;7.230;2023-04-16T13:37:57;17.30;99.90
11497;DHT22;5805;51.542;7.230;2023-04-16T13:40:22;17.40;99.70
11497;DHT22;5805;51.542;7.230;2023-04-16T13:42:48;17.70;99.60
11497;DHT22;5805;51.542;7.230;2023-04-16T13:45:14;17.80;98.60
11497;DHT22;5805;51.542;7.230;2023-04-16T13:47:40;17.50;96.70
11497;DHT22;5805;51.542;7.230;2023-04-16T13:50:06;17.40;98.40
11497;DHT22;5805;51.542;7.230;2023-04-16T13:52:32;17.50;98.00
11497;DHT22;5805;51.542;7.230;2023-04-16T13:54:59;17.40;98.40
11497;DHT22;5805;51.542;7.230;2023-04-16T13:57:25;17.50;98.90
11497;DHT22;5805;51.542;7.230;2023-04-16T13:59:51;17.50;97.80
11497;DHT22;5805;51.542;7.230;2023-04-16T14:02:16;17.60;97.90
11497;DHT22;5805;51.542;7.230;2023-04-16T14:04:42;17.40;97.90
11497;DHT22;5805;51.542;7.230;2023-04-16T14:07:08;17.60;98.20
11497;DHT22;5805;51.542;7.230;2023-04-16T14:09:33;17.50;97.60
11497;DHT22;5805;51.542;7.230;2023-04-16T14:12:00;17.50;97.00
11497;DHT22;5805;51.542;7.230;2023-04-16T14:14:26;17.50;96.70
11497;DHT22;5805;51.542;7.230;2023-04-16T14:16:53;17.30;97.80
11497;DHT22;5805;51.542;7.230;2023-04-16T14:19:19;17.20;97.90
11497;DHT22;5805;51.542;7.230;2023-04-16T14:21:44;17.10;98.70
11497;DHT22;5805;51.542;7.230;2023-04-16T14:24:10;17.10;99.20
11497;DHT22;5805;51.542;7.230;2023-04-16T14:26:36;16.90;98.60
11497;DHT22;5805;51.542;7.230;2023-04-16T14:29:03;16.70;99.80
11497;DHT22;5805;51.542;7.230;2023-04-16T14:31:29;16.80;99.90
11497;DHT22;5805;51.542;7.230;2023-04-16T14:33:55;16.90;98.70
11497;DHT22;5805;51.542;7.230;2023-04-16T14:36:20;16.70;99.00
11497;DHT22;5805;51.542;7.230;2023-04-16T14:38:46;16.70;99.40
11497;DHT22;5805;51.542;7.230;2023-04-16T14:41:12;16.70;98.60
11497;DHT22;5805;51.542;7.230;2023-04-16T14:43:37;16.80;98.90
11497;DHT22;5805;51.542;7.230;2023-04-16T14:46:05;16.90;98.80
11497;DHT22;5805;51.542;7.230;2023-04-16T14:48:30;16.90;99.00
11497;DHT22;5805;51.542;7.230;2023-04-16T14:50:57;17.00;98.20
11497;DHT22;5805;51.542;7.230;2023-04-16T14:53:23;16.90;96.50
11497;DHT22;5805;51.542;7.230;2023-04-16T14:55:49;16.60;97.30
11497;DHT22;5805;51.542;7.230;2023-04-16T14:58:14;16.60;98.00
11497;DHT22;5805;51.542;7.230;2023-04-16T15:00:40;16.70;98.50
11497;DHT22;5805;51.542;7.230;2023-04-16T15:03:07;16.60;99.40
11497;DHT22;5805;51.542;7.230;2023-04-16T15:05:34;16.80;99.90
11497;DHT22;5805;51.542;7.230;2023-04-16T15:08:00;16.80;99.90
11497;DHT22;5805;51.542;7.230;2023-04-16T15:10:26;16.80;99.20
11497;DHT22;5805;51.542;7.230;2023-04-16T15:12:51;16.70;98.70
11497;DHT22;5805;51.542;7.230;2023-04-16T15:15:17;16.80;99.00
11497;DHT22;5805;51.542;7.230;2023-04-16T15:17:43;16.80;98.40
11497;DHT22;5805;51.542;7.230;2023-04-16T15:20:11;16.70;98.70
11497;DHT22;5805;51.542;7.230;2023-04-16T15:22:37;16.70;98.90
11497;DHT22;5805;51.542;7.230;2023-04-16T15:25:03;16.80;99.00
11497;DHT22;5805;51.542;7.230;2023-04-16T15:27:28;16.90;98.60
11497;DHT22;5805;51.542;7.230;2023-04-16T15:29:54;16.80;97.90
11497;DHT22;5805;51.542;7.230;2023-04-16T15:32:20;16.80;98.90
11497;DHT22;5805;51.542;7.230;2023-04-16T15:34:45;16.80;99.20
11497;DHT22;5805;51.542;7.230;2023-04-16T15:37:12;16.80;99.20
11497;DHT22;5805;51.542;7.230;2023-04-16T15:39:38;16.80;99.60